sensor_id;sensor_type;location;lat;lon;timestamp;pressure;altitude;pressure_sealevel;temperature;humidity
65013;BME280;51715;39.432;-77.518;2023-02-15T00:01:06;99984.61;;;14.98;18.72
65013;BME280;51715;39.432;-77.518;2023-02-15T00:03:34;99986.17;;;14.99;19.00
65013;BME280;51715;39.432;-77.518;2023-02-15T00:06:03;99985.89;;;15.08;18.87
65013;BME280;51715;39.432;-77.518;2023-02-15T00:08:32;99983.78;;;15.11;18.90
65013;BME280;51715;39.432;-77.518;2023-02-15T00:11:08;99987.57;;;15.30;18.80
65013;BME280;51715;39.432;-77.518;2023-02-15T00:13:37;99985.57;;;14.59;18.12
65013;BME280;51715;39.432;-77.518;2023-02-15T00:16:07;99985.39;;;15.03;19.07
65013;BME280;51715;39.432;-77.518;2023-02-15T00:18:36;99983.10;;;15.04;18.16
65013;BME280;51715;39.432;-77.518;2023-02-15T00:21:10;99982.88;;;14.91;18.20
65013;BME280;51715;39.432;-77.518;2023-02-15T00:23:40;99980.94;;;14.96;17.86
65013;BME280;51715;39.432;-77.518;2023-02-15T00:26:10;99981.13;;;15.50;18.78
65013;BME280;51715;39.432;-77.518;2023-02-15T00:28:39;99985.06;;;14.59;18.92
65013;BME280;51715;39.432;-77.518;2023-02-15T00:31:07;99989.17;;;15.32;18.30
65013;BME280;51715;39.432;-77.518;2023-02-15T00:33:37;99987.87;;;15.28;18.03
65013;BME280;51715;39.432;-77.518;2023-02-15T00:36:07;99982.44;;;15.18;18.77
65013;BME280;51715;39.432;-77.518;2023-02-15T00:38:35;99976.47;;;15.39;18.04
65013;BME280;51715;39.432;-77.518;2023-02-15T00:41:10;99964.04;;;14.94;18.32
65013;BME280;51715;39.432;-77.518;2023-02-15T00:43:38;99952.33;;;15.15;18.81
65013;BME280;51715;39.432;-77.518;2023-02-15T00:46:08;99957.82;;;15.17;18.58
65013;BME280;51715;39.432;-77.518;2023-02-15T00:48:36;99965.64;;;15.17;18.73
65013;BME280;51715;39.432;-77.518;2023-02-15T00:51:05;99962.36;;;15.12;18.58
65013;BME280;51715;39.432;-77.518;2023-02-15T00:53:33;99961.13;;;14.50;18.67
65013;BME280;51715;39.432;-77.518;2023-02-15T00:56:02;99949.81;;;15.04;18.40
65013;BME280;51715;39.432;-77.518;2023-02-15T00:58:30;99943.58;;;15.12;18.38
65013;BME280;51715;39.432;-77.518;2023-02-15T01:01:04;99938.54;;;15.40;18.61
65013;BME280;51715;39.432;-77.518;2023-02-15T01:03:34;99934.05;;;15.44;18.16
65013;BME280;51715;39.432;-77.518;2023-02-15T01:06:03;99933.88;;;15.58;18.33
65013;BME280;51715;39.432;-77.518;2023-02-15T01:08:32;99934.69;;;15.55;18.67
65013;BME280;51715;39.432;-77.518;2023-02-15T01:11:04;99944.79;;;15.14;18.30
65013;BME280;51715;39.432;-77.518;2023-02-15T01:13:32;99956.77;;;14.68;18.87
65013;BME280;51715;39.432;-77.518;2023-02-15T01:16:00;99962.04;;;14.64;18.89
65013;BME280;51715;39.432;-77.518;2023-02-15T01:18:29;99969.01;;;14.95;19.24
65013;BME280;51715;39.432;-77.518;2023-02-15T01:20:57;99971.83;;;14.19;19.66
65013;BME280;51715;39.432;-77.518;2023-02-15T01:23:25;99972.17;;;14.50;19.33
65013;BME280;51715;39.432;-77.518;2023-02-15T01:25:53;99965.91;;;14.89;19.35
65013;BME280;51715;39.432;-77.518;2023-02-15T01:28:22;99961.35;;;14.48;19.49
65013;BME280;51715;39.432;-77.518;2023-02-15T01:30:51;99963.69;;;14.66;19.98
65013;BME280;51715;39.432;-77.518;2023-02-15T01:33:19;99959.20;;;14.15;18.91
65013;BME280;51715;39.432;-77.518;2023-02-15T01:35:47;99970.01;;;13.70;19.87
65013;BME280;51715;39.432;-77.518;2023-02-15T01:38:16;99968.98;;;13.62;20.56
65013;BME280;51715;39.432;-77.518;2023-02-15T01:40:44;99964.30;;;14.23;19.83
65013;BME280;51715;39.432;-77.518;2023-02-15T01:43:13;99959.65;;;14.00;20.06
65013;BME280;51715;39.432;-77.518;2023-02-15T01:45:41;99947.54;;;13.74;20.37
65013;BME280;51715;39.432;-77.518;2023-02-15T01:48:19;99954.53;;;13.39;20.77
65013;BME280;51715;39.432;-77.518;2023-02-15T01:50:51;99951.97;;;13.79;20.00
65013;BME280;51715;39.432;-77.518;2023-02-15T01:53:23;99959.18;;;13.42;20.57
65013;BME280;51715;39.432;-77.518;2023-02-15T01:55:57;99964.28;;;13.79;20.18
65013;BME280;51715;39.432;-77.518;2023-02-15T01:58:27;99964.83;;;13.90;20.18
65013;BME280;51715;39.432;-77.518;2023-02-15T02:00:59;99965.55;;;14.14;20.04
65013;BME280;51715;39.432;-77.518;2023-02-15T02:03:36;99961.21;;;14.37;19.50
65013;BME280;51715;39.432;-77.518;2023-02-15T02:06:08;99973.53;;;13.96;20.86
65013;BME280;51715;39.432;-77.518;2023-02-15T02:08:39;99976.82;;;13.78;20.15
65013;BME280;51715;39.432;-77.518;2023-02-15T02:11:11;99969.01;;;14.58;19.46
65013;BME280;51715;39.432;-77.518;2023-02-15T02:13:40;99964.05;;;14.92;19.51
65013;BME280;51715;39.432;-77.518;2023-02-15T02:16:14;99958.95;;;14.74;19.84
65013;BME280;51715;39.432;-77.518;2023-02-15T02:18:51;99969.91;;;14.30;19.72
65013;BME280;51715;39.432;-77.518;2023-02-15T02:23:16;99979.24;;;15.39;19.94
65013;BME280;51715;39.432;-77.518;2023-02-15T02:26:56;99989.26;;;14.63;19.43
65013;BME280;51715;39.432;-77.518;2023-02-15T02:30:20;99992.19;;;14.74;19.65
65013;BME280;51715;39.432;-77.518;2023-02-15T02:33:15;99990.77;;;15.14;19.56
65013;BME280;51715;39.432;-77.518;2023-02-15T02:35:53;99989.51;;;14.86;19.53
65013;BME280;51715;39.432;-77.518;2023-02-15T02:38:31;99996.70;;;14.97;19.63
65013;BME280;51715;39.432;-77.518;2023-02-15T02:41:10;99995.11;;;14.95;19.24
65013;BME280;51715;39.432;-77.518;2023-02-15T02:43:48;99996.90;;;14.86;20.31
65013;BME280;51715;39.432;-77.518;2023-02-15T02:46:25;99995.57;;;15.09;20.16
65013;BME280;51715;39.432;-77.518;2023-02-15T02:48:57;99992.25;;;15.22;20.23
65013;BME280;51715;39.432;-77.518;2023-02-15T02:51:25;99986.37;;;14.90;20.15
65013;BME280;51715;39.432;-77.518;2023-02-15T02:53:56;99980.04;;;14.57;21.53
65013;BME280;51715;39.432;-77.518;2023-02-15T02:56:29;99971.16;;;14.75;20.50
65013;BME280;51715;39.432;-77.518;2023-02-15T02:59:01;99964.88;;;14.63;21.34
65013;BME280;51715;39.432;-77.518;2023-02-15T03:01:37;99960.75;;;14.46;20.46
65013;BME280;51715;39.432;-77.518;2023-02-15T03:04:11;99955.51;;;14.45;20.26
65013;BME280;51715;39.432;-77.518;2023-02-15T03:06:47;99952.36;;;14.65;20.23
65013;BME280;51715;39.432;-77.518;2023-02-15T03:09:21;99955.47;;;14.14;21.16
65013;BME280;51715;39.432;-77.518;2023-02-15T03:11:52;99953.88;;;14.32;20.85
65013;BME280;51715;39.432;-77.518;2023-02-15T03:14:20;99957.16;;;14.51;20.92
65013;BME280;51715;39.432;-77.518;2023-02-15T03:16:51;99954.03;;;14.51;20.76
65013;BME280;51715;39.432;-77.518;2023-02-15T03:19:23;99940.41;;;14.35;21.25
65013;BME280;51715;39.432;-77.518;2023-02-15T03:21:57;99921.74;;;14.57;21.16
65013;BME280;51715;39.432;-77.518;2023-02-15T03:24:33;99911.83;;;14.48;21.52
65013;BME280;51715;39.432;-77.518;2023-02-15T03:27:06;99909.63;;;14.60;21.23
65013;BME280;51715;39.432;-77.518;2023-02-15T03:29:36;99913.00;;;14.62;21.25
65013;BME280;51715;39.432;-77.518;2023-02-15T03:32:07;99908.58;;;14.38;21.68
65013;BME280;51715;39.432;-77.518;2023-02-15T03:34:38;99913.44;;;14.63;21.32
65013;BME280;51715;39.432;-77.518;2023-02-15T03:37:13;99913.22;;;14.62;21.36
65013;BME280;51715;39.432;-77.518;2023-02-15T03:39:47;99909.65;;;14.42;21.64
65013;BME280;51715;39.432;-77.518;2023-02-15T03:42:22;99888.48;;;14.52;21.32
65013;BME280;51715;39.432;-77.518;2023-02-15T03:44:58;99876.24;;;14.67;21.33
65013;BME280;51715;39.432;-77.518;2023-02-15T03:47:29;99872.80;;;14.53;21.40
65013;BME280;51715;39.432;-77.518;2023-02-15T03:50:02;99884.85;;;14.51;21.47
65013;BME280;51715;39.432;-77.518;2023-02-15T03:52:32;99887.17;;;14.63;21.44
65013;BME280;51715;39.432;-77.518;2023-02-15T03:55:22;99883.25;;;14.40;22.04
65013;BME280;51715;39.432;-77.518;2023-02-15T03:57:50;99873.46;;;14.06;22.01
65013;BME280;51715;39.432;-77.518;2023-02-15T04:00:21;99854.51;;;14.10;22.94
65013;BME280;51715;39.432;-77.518;2023-02-15T04:03:05;99862.60;;;13.63;23.33
65013;BME280;51715;39.432;-77.518;2023-02-15T04:05:35;99864.36;;;13.01;23.51
65013;BME280;51715;39.432;-77.518;2023-02-15T04:08:03;99851.76;;;13.69;22.99
65013;BME280;51715;39.432;-77.518;2023-02-15T04:10:32;99848.60;;;13.89;22.65
65013;BME280;51715;39.432;-77.518;2023-02-15T04:13:51;99838.62;;;13.62;23.54
65013;BME280;51715;39.432;-77.518;2023-02-15T04:16:28;99817.71;;;13.98;23.08
65013;BME280;51715;39.432;-77.518;2023-02-15T04:18:56;99823.51;;;14.03;22.91
65013;BME280;51715;39.432;-77.518;2023-02-15T04:21:27;99838.69;;;14.08;22.98
65013;BME280;51715;39.432;-77.518;2023-02-15T04:23:56;99847.59;;;13.58;24.17
65013;BME280;51715;39.432;-77.518;2023-02-15T04:26:24;99860.24;;;13.47;24.17
65013;BME280;51715;39.432;-77.518;2023-02-15T04:28:53;99888.84;;;13.65;23.84
65013;BME280;51715;39.432;-77.518;2023-02-15T04:31:21;99886.87;;;13.01;24.56
65013;BME280;51715;39.432;-77.518;2023-02-15T04:33:49;99888.77;;;13.32;24.57
65013;BME280;51715;39.432;-77.518;2023-02-15T04:36:18;99896.07;;;13.54;24.43
65013;BME280;51715;39.432;-77.518;2023-02-15T04:38:46;99891.97;;;12.47;25.28
65013;BME280;51715;39.432;-77.518;2023-02-15T04:41:22;99884.34;;;13.52;24.78
65013;BME280;51715;39.432;-77.518;2023-02-15T04:43:51;99891.29;;;13.25;25.34
65013;BME280;51715;39.432;-77.518;2023-02-15T04:46:19;99885.31;;;13.19;25.18
65013;BME280;51715;39.432;-77.518;2023-02-15T04:48:47;99890.79;;;12.83;25.93
65013;BME280;51715;39.432;-77.518;2023-02-15T04:51:15;99886.92;;;13.02;25.72
65013;BME280;51715;39.432;-77.518;2023-02-15T04:53:43;99884.11;;;12.83;26.10
65013;BME280;51715;39.432;-77.518;2023-02-15T04:56:11;99883.90;;;12.57;25.67
65013;BME280;51715;39.432;-77.518;2023-02-15T04:58:59;99870.27;;;11.75;28.36
65013;BME280;51715;39.432;-77.518;2023-02-15T05:04:24;99880.51;;;12.54;25.68
65013;BME280;51715;39.432;-77.518;2023-02-15T05:06:52;99876.77;;;12.01;26.29
65013;BME280;51715;39.432;-77.518;2023-02-15T05:09:21;99860.63;;;12.24;26.11
65013;BME280;51715;39.432;-77.518;2023-02-15T05:11:49;99854.62;;;13.01;25.84
65013;BME280;51715;39.432;-77.518;2023-02-15T05:14:25;99858.42;;;12.65;25.91
65013;BME280;51715;39.432;-77.518;2023-02-15T05:16:53;99854.86;;;13.34;25.50
65013;BME280;51715;39.432;-77.518;2023-02-15T05:19:22;99859.65;;;13.12;26.17
65013;BME280;51715;39.432;-77.518;2023-02-15T05:21:50;99853.27;;;13.11;25.65
65013;BME280;51715;39.432;-77.518;2023-02-15T05:24:18;99851.90;;;12.91;25.67
65013;BME280;51715;39.432;-77.518;2023-02-15T05:26:46;99859.32;;;12.35;26.75
65013;BME280;51715;39.432;-77.518;2023-02-15T05:29:25;99851.77;;;13.08;26.66
65013;BME280;51715;39.432;-77.518;2023-02-15T05:31:53;99844.08;;;12.53;26.77
65013;BME280;51715;39.432;-77.518;2023-02-15T05:34:22;99858.28;;;12.70;25.99
65013;BME280;51715;39.432;-77.518;2023-02-15T05:36:52;99849.10;;;12.78;26.70
65013;BME280;51715;39.432;-77.518;2023-02-15T05:39:19;99848.37;;;12.75;26.31
65013;BME280;51715;39.432;-77.518;2023-02-15T05:41:47;99842.59;;;13.21;25.73
65013;BME280;51715;39.432;-77.518;2023-02-15T05:44:15;99836.00;;;13.32;25.87
65013;BME280;51715;39.432;-77.518;2023-02-15T05:46:43;99826.52;;;13.15;25.56
65013;BME280;51715;39.432;-77.518;2023-02-15T05:49:24;99824.92;;;13.75;25.74
65013;BME280;51715;39.432;-77.518;2023-02-15T05:51:52;99799.81;;;13.32;25.45
65013;BME280;51715;39.432;-77.518;2023-02-15T05:54:21;99806.87;;;13.29;26.04
65013;BME280;51715;39.432;-77.518;2023-02-15T05:56:49;99805.87;;;12.97;26.15
65013;BME280;51715;39.432;-77.518;2023-02-15T05:59:17;99808.18;;;12.86;25.87
65013;BME280;51715;39.432;-77.518;2023-02-15T06:02:12;99804.60;;;13.83;26.08
65013;BME280;51715;39.432;-77.518;2023-02-15T06:04:41;99804.26;;;11.35;28.06
65013;BME280;51715;39.432;-77.518;2023-02-15T06:07:24;99790.17;;;11.94;27.54
65013;BME280;51715;39.432;-77.518;2023-02-15T06:09:52;99809.19;;;11.06;28.37
65013;BME280;51715;39.432;-77.518;2023-02-15T06:12:21;99817.90;;;11.20;29.15
65013;BME280;51715;39.432;-77.518;2023-02-15T06:14:49;99819.89;;;11.50;28.91
65013;BME280;51715;39.432;-77.518;2023-02-15T06:17:18;99817.08;;;12.17;27.97
65013;BME280;51715;39.432;-77.518;2023-02-15T06:19:46;99803.88;;;12.09;27.78
65013;BME280;51715;39.432;-77.518;2023-02-15T06:22:15;99797.62;;;12.15;27.63
65013;BME280;51715;39.432;-77.518;2023-02-15T06:24:43;99788.54;;;12.40;27.41
65013;BME280;51715;39.432;-77.518;2023-02-15T06:27:12;99787.91;;;12.25;27.57
65013;BME280;51715;39.432;-77.518;2023-02-15T06:29:41;99776.07;;;12.33;27.73
65013;BME280;51715;39.432;-77.518;2023-02-15T06:32:23;99767.30;;;12.19;27.60
65013;BME280;51715;39.432;-77.518;2023-02-15T06:34:51;99750.80;;;11.89;28.05
65013;BME280;51715;39.432;-77.518;2023-02-15T06:37:20;99760.13;;;11.98;28.02
65013;BME280;51715;39.432;-77.518;2023-02-15T06:39:48;99771.32;;;11.31;28.80
65013;BME280;51715;39.432;-77.518;2023-02-15T06:42:16;99789.25;;;11.86;28.63
65013;BME280;51715;39.432;-77.518;2023-02-15T06:44:45;99799.22;;;11.92;27.89
65013;BME280;51715;39.432;-77.518;2023-02-15T06:47:13;99806.24;;;12.03;28.53
65013;BME280;51715;39.432;-77.518;2023-02-15T06:49:40;99814.33;;;11.70;28.45
65013;BME280;51715;39.432;-77.518;2023-02-15T06:52:24;99804.69;;;11.80;28.70
65013;BME280;51715;39.432;-77.518;2023-02-15T06:54:52;99795.24;;;11.51;29.09
65013;BME280;51715;39.432;-77.518;2023-02-15T06:57:20;99800.61;;;12.03;28.86
65013;BME280;51715;39.432;-77.518;2023-02-15T06:59:48;99797.71;;;12.29;28.28
65013;BME280;51715;39.432;-77.518;2023-02-15T07:02:17;99800.99;;;12.28;28.16
65013;BME280;51715;39.432;-77.518;2023-02-15T07:04:45;99796.97;;;11.21;29.59
65013;BME280;51715;39.432;-77.518;2023-02-15T07:07:24;99788.25;;;11.64;29.27
65013;BME280;51715;39.432;-77.518;2023-02-15T07:09:52;99808.12;;;12.45;28.25
65013;BME280;51715;39.432;-77.518;2023-02-15T07:12:19;99813.86;;;12.26;28.27
65013;BME280;51715;39.432;-77.518;2023-02-15T07:14:48;99793.30;;;11.95;28.59
65013;BME280;51715;39.432;-77.518;2023-02-15T07:17:16;99788.67;;;11.72;29.20
65013;BME280;51715;39.432;-77.518;2023-02-15T07:19:45;99795.65;;;11.81;28.90
65013;BME280;51715;39.432;-77.518;2023-02-15T07:22:25;99789.35;;;12.22;28.56
65013;BME280;51715;39.432;-77.518;2023-02-15T07:24:54;99802.41;;;12.29;28.56
65013;BME280;51715;39.432;-77.518;2023-02-15T07:27:22;99796.07;;;12.41;28.43
65013;BME280;51715;39.432;-77.518;2023-02-15T07:29:50;99812.71;;;11.61;30.19
65013;BME280;51715;39.432;-77.518;2023-02-15T07:32:17;99820.20;;;10.62;30.07
65013;BME280;51715;39.432;-77.518;2023-02-15T07:34:45;99784.03;;;10.81;31.13
65013;BME280;51715;39.432;-77.518;2023-02-15T07:37:13;99771.00;;;11.52;30.19
65013;BME280;51715;39.432;-77.518;2023-02-15T07:39:41;99767.57;;;11.26;30.29
65013;BME280;51715;39.432;-77.518;2023-02-15T07:42:09;99798.96;;;11.56;30.07
65013;BME280;51715;39.432;-77.518;2023-02-15T07:44:37;99763.08;;;11.01;30.53
65013;BME280;51715;39.432;-77.518;2023-02-15T07:47:06;99780.39;;;10.62;31.64
65013;BME280;51715;39.432;-77.518;2023-02-15T07:49:34;99772.58;;;11.06;31.28
65013;BME280;51715;39.432;-77.518;2023-02-15T07:52:03;99786.28;;;11.30;31.15
65013;BME280;51715;39.432;-77.518;2023-02-15T07:54:31;99765.59;;;11.53;30.05
65013;BME280;51715;39.432;-77.518;2023-02-15T07:57:00;99744.95;;;12.04;29.91
65013;BME280;51715;39.432;-77.518;2023-02-15T07:59:29;99733.26;;;11.91;29.98
65013;BME280;51715;39.432;-77.518;2023-02-15T08:01:57;99712.46;;;11.84;30.10
65013;BME280;51715;39.432;-77.518;2023-02-15T08:04:25;99690.14;;;11.73;29.94
65013;BME280;51715;39.432;-77.518;2023-02-15T08:06:54;99662.36;;;11.84;29.78
65013;BME280;51715;39.432;-77.518;2023-02-15T08:09:23;99660.67;;;12.07;29.45
65013;BME280;51715;39.432;-77.518;2023-02-15T08:11:51;99659.26;;;11.50;30.31
65013;BME280;51715;39.432;-77.518;2023-02-15T08:14:22;99676.80;;;11.24;30.46
65013;BME280;51715;39.432;-77.518;2023-02-15T08:16:51;99698.56;;;11.81;29.98
65013;BME280;51715;39.432;-77.518;2023-02-15T08:19:22;99738.04;;;11.63;30.07
65013;BME280;51715;39.432;-77.518;2023-02-15T08:21:53;99767.75;;;11.78;30.07
65013;BME280;51715;39.432;-77.518;2023-02-15T08:24:23;99736.36;;;11.22;31.36
65013;BME280;51715;39.432;-77.518;2023-02-15T08:26:52;99716.21;;;12.12;29.99
65013;BME280;51715;39.432;-77.518;2023-02-15T08:29:22;99718.56;;;11.92;29.78
65013;BME280;51715;39.432;-77.518;2023-02-15T08:31:53;99698.54;;;12.10;30.41
65013;BME280;51715;39.432;-77.518;2023-02-15T08:34:21;99686.50;;;12.05;29.73
65013;BME280;51715;39.432;-77.518;2023-02-15T08:36:49;99660.59;;;12.12;29.30
65013;BME280;51715;39.432;-77.518;2023-02-15T08:39:17;99653.27;;;11.85;29.78
65013;BME280;51715;39.432;-77.518;2023-02-15T08:41:47;99675.06;;;12.24;29.88
65013;BME280;51715;39.432;-77.518;2023-02-15T08:44:17;99691.10;;;12.44;29.13
65013;BME280;51715;39.432;-77.518;2023-02-15T08:46:47;99687.24;;;12.41;29.03
65013;BME280;51715;39.432;-77.518;2023-02-15T08:49:18;99676.57;;;12.30;29.27
65013;BME280;51715;39.432;-77.518;2023-02-15T08:51:47;99665.74;;;12.28;29.38
65013;BME280;51715;39.432;-77.518;2023-02-15T08:54:17;99671.92;;;12.16;29.58
65013;BME280;51715;39.432;-77.518;2023-02-15T08:56:46;99673.90;;;12.23;30.05
65013;BME280;51715;39.432;-77.518;2023-02-15T08:59:21;99676.19;;;12.12;30.28
65013;BME280;51715;39.432;-77.518;2023-02-15T09:01:52;99684.62;;;11.51;30.42
65013;BME280;51715;39.432;-77.518;2023-02-15T09:04:21;99761.48;;;11.89;29.73
65013;BME280;51715;39.432;-77.518;2023-02-15T09:06:49;99792.42;;;12.69;28.90
65013;BME280;51715;39.432;-77.518;2023-02-15T09:09:18;99811.73;;;13.09;28.20
65013;BME280;51715;39.432;-77.518;2023-02-15T09:11:48;99770.21;;;13.14;28.44
65013;BME280;51715;39.432;-77.518;2023-02-15T09:14:20;99776.46;;;13.17;28.21
65013;BME280;51715;39.432;-77.518;2023-02-15T09:16:48;99771.61;;;13.50;28.05
65013;BME280;51715;39.432;-77.518;2023-02-15T09:19:17;99784.46;;;13.35;28.24
65013;BME280;51715;39.432;-77.518;2023-02-15T09:21:46;99786.91;;;13.44;28.87
65013;BME280;51715;39.432;-77.518;2023-02-15T09:24:16;99795.86;;;13.42;28.20
65013;BME280;51715;39.432;-77.518;2023-02-15T09:26:47;99784.40;;;12.35;30.16
65013;BME280;51715;39.432;-77.518;2023-02-15T09:29:16;99781.46;;;13.13;29.08
65013;BME280;51715;39.432;-77.518;2023-02-15T09:31:46;99803.97;;;13.35;28.55
65013;BME280;51715;39.432;-77.518;2023-02-15T09:34:18;99772.43;;;12.81;29.20
65013;BME280;51715;39.432;-77.518;2023-02-15T09:36:46;99792.06;;;13.25;28.57
65013;BME280;51715;39.432;-77.518;2023-02-15T09:39:17;99796.25;;;13.10;29.33
65013;BME280;51715;39.432;-77.518;2023-02-15T09:42:04;99744.54;;;12.10;30.37
65013;BME280;51715;39.432;-77.518;2023-02-15T09:44:59;99773.16;;;12.59;29.83
65013;BME280;51715;39.432;-77.518;2023-02-15T09:47:57;99778.30;;;12.10;30.32
65013;BME280;51715;39.432;-77.518;2023-02-15T09:50:37;99789.90;;;12.65;29.71
65013;BME280;51715;39.432;-77.518;2023-02-15T09:53:21;99817.93;;;13.04;29.28
65013;BME280;51715;39.432;-77.518;2023-02-15T09:56:02;99791.41;;;12.84;29.16
65013;BME280;51715;39.432;-77.518;2023-02-15T09:58:39;99785.89;;;13.23;29.16
65013;BME280;51715;39.432;-77.518;2023-02-15T10:01:17;99793.23;;;12.89;29.10
65013;BME280;51715;39.432;-77.518;2023-02-15T10:04:00;99772.86;;;12.18;30.34
65013;BME280;51715;39.432;-77.518;2023-02-15T10:06:45;99787.19;;;12.35;30.86
65013;BME280;51715;39.432;-77.518;2023-02-15T10:09:33;99758.74;;;12.81;29.53
65013;BME280;51715;39.432;-77.518;2023-02-15T10:12:17;99747.20;;;12.90;29.30
65013;BME280;51715;39.432;-77.518;2023-02-15T10:15:08;99728.46;;;12.91;29.25
65013;BME280;51715;39.432;-77.518;2023-02-15T10:17:49;99712.67;;;12.50;29.84
65013;BME280;51715;39.432;-77.518;2023-02-15T10:20:37;99706.11;;;12.53;30.32
65013;BME280;51715;39.432;-77.518;2023-02-15T10:23:25;99713.74;;;12.91;30.00
65013;BME280;51715;39.432;-77.518;2023-02-15T10:26:01;99709.94;;;12.24;30.45
65013;BME280;51715;39.432;-77.518;2023-02-15T10:28:42;99702.73;;;12.36;30.39
65013;BME280;51715;39.432;-77.518;2023-02-15T10:31:21;99715.63;;;12.40;30.35
65013;BME280;51715;39.432;-77.518;2023-02-15T10:34:00;99699.30;;;12.73;30.31
65013;BME280;51715;39.432;-77.518;2023-02-15T10:36:43;99702.91;;;12.45;30.01
65013;BME280;51715;39.432;-77.518;2023-02-15T10:39:23;99720.00;;;12.90;29.72
65013;BME280;51715;39.432;-77.518;2023-02-15T10:42:01;99793.81;;;13.17;29.48
65013;BME280;51715;39.432;-77.518;2023-02-15T10:44:45;99788.81;;;13.12;29.64
65013;BME280;51715;39.432;-77.518;2023-02-15T10:47:40;99748.65;;;13.04;29.76
65013;BME280;51715;39.432;-77.518;2023-02-15T10:50:22;99731.99;;;13.06;30.47
65013;BME280;51715;39.432;-77.518;2023-02-15T10:53:03;99717.80;;;12.40;30.97
65013;BME280;51715;39.432;-77.518;2023-02-15T10:55:47;99719.94;;;12.56;30.81
65013;BME280;51715;39.432;-77.518;2023-02-15T10:58:27;99712.72;;;12.53;30.97
65013;BME280;51715;39.432;-77.518;2023-02-15T11:01:05;99705.41;;;12.10;31.87
65013;BME280;51715;39.432;-77.518;2023-02-15T11:03:55;99694.88;;;12.17;31.27
65013;BME280;51715;39.432;-77.518;2023-02-15T11:06:28;99687.28;;;12.04;31.94
65013;BME280;51715;39.432;-77.518;2023-02-15T11:09:03;99683.73;;;12.68;30.99
65013;BME280;51715;39.432;-77.518;2023-02-15T11:11:34;99706.93;;;12.77;30.60
65013;BME280;51715;39.432;-77.518;2023-02-15T11:14:09;99722.95;;;12.53;30.85
65013;BME280;51715;39.432;-77.518;2023-02-15T11:16:44;99712.99;;;12.94;30.74
65013;BME280;51715;39.432;-77.518;2023-02-15T11:19:17;99688.99;;;13.05;30.41
65013;BME280;51715;39.432;-77.518;2023-02-15T11:21:49;99675.61;;;12.72;31.06
65013;BME280;51715;39.432;-77.518;2023-02-15T11:24:19;99664.43;;;12.44;31.14
65013;BME280;51715;39.432;-77.518;2023-02-15T11:26:53;99649.57;;;13.10;30.50
65013;BME280;51715;39.432;-77.518;2023-02-15T11:29:27;99658.52;;;13.18;30.58
65013;BME280;51715;39.432;-77.518;2023-02-15T11:32:01;99660.99;;;12.84;31.40
65013;BME280;51715;39.432;-77.518;2023-02-15T11:34:34;99647.35;;;12.64;31.27
65013;BME280;51715;39.432;-77.518;2023-02-15T11:37:08;99646.65;;;13.02;31.71
65013;BME280;51715;39.432;-77.518;2023-02-15T11:39:39;99657.58;;;12.92;31.53
65013;BME280;51715;39.432;-77.518;2023-02-15T11:42:13;99672.45;;;12.97;31.44
65013;BME280;51715;39.432;-77.518;2023-02-15T11:44:47;99668.34;;;12.57;32.39
65013;BME280;51715;39.432;-77.518;2023-02-15T11:47:17;99674.02;;;12.38;31.74
65013;BME280;51715;39.432;-77.518;2023-02-15T11:49:47;99679.04;;;12.47;32.96
65013;BME280;51715;39.432;-77.518;2023-02-15T11:52:17;99669.16;;;12.54;32.37
65013;BME280;51715;39.432;-77.518;2023-02-15T11:54:47;99662.63;;;12.28;32.61
65013;BME280;51715;39.432;-77.518;2023-02-15T11:57:22;99657.61;;;12.68;32.04
65013;BME280;51715;39.432;-77.518;2023-02-15T11:59:55;99664.26;;;12.95;31.65
65013;BME280;51715;39.432;-77.518;2023-02-15T12:02:24;99670.43;;;13.01;31.43
65013;BME280;51715;39.432;-77.518;2023-02-15T12:04:54;99680.65;;;12.35;32.36
65013;BME280;51715;39.432;-77.518;2023-02-15T12:07:28;99683.67;;;12.86;31.68
65013;BME280;51715;39.432;-77.518;2023-02-15T12:10:03;99678.09;;;12.93;31.56
65013;BME280;51715;39.432;-77.518;2023-02-15T12:12:34;99673.44;;;12.32;33.21
65013;BME280;51715;39.432;-77.518;2023-02-15T12:15:05;99682.98;;;12.29;32.90
65013;BME280;51715;39.432;-77.518;2023-02-15T12:17:36;99690.89;;;12.01;32.95
65013;BME280;51715;39.432;-77.518;2023-02-15T12:20:20;99695.11;;;12.67;32.35
65013;BME280;51715;39.432;-77.518;2023-02-15T12:22:52;99690.65;;;12.77;32.01
65013;BME280;51715;39.432;-77.518;2023-02-15T12:25:25;99688.70;;;12.84;31.98
65013;BME280;51715;39.432;-77.518;2023-02-15T12:27:55;99690.84;;;12.47;33.00
65013;BME280;51715;39.432;-77.518;2023-02-15T12:30:28;99693.34;;;12.21;33.01
65013;BME280;51715;39.432;-77.518;2023-02-15T12:33:02;99694.08;;;12.63;32.74
65013;BME280;51715;39.432;-77.518;2023-02-15T12:35:40;99700.48;;;13.33;32.92
65013;BME280;51715;39.432;-77.518;2023-02-15T12:38:23;99699.03;;;13.11;31.55
65013;BME280;51715;39.432;-77.518;2023-02-15T12:40:59;99695.87;;;13.69;31.12
65013;BME280;51715;39.432;-77.518;2023-02-15T12:43:32;99686.82;;;14.10;30.86
65013;BME280;51715;39.432;-77.518;2023-02-15T12:46:20;99679.85;;;13.32;31.36
65013;BME280;51715;39.432;-77.518;2023-02-15T12:49:06;99684.40;;;13.54;31.21
65013;BME280;51715;39.432;-77.518;2023-02-15T12:51:51;99690.24;;;13.17;31.44
65013;BME280;51715;39.432;-77.518;2023-02-15T12:54:31;99694.16;;;13.26;31.19
65013;BME280;51715;39.432;-77.518;2023-02-15T12:57:12;99688.44;;;12.72;32.54
65013;BME280;51715;39.432;-77.518;2023-02-15T12:59:49;99685.96;;;13.14;31.95
65013;BME280;51715;39.432;-77.518;2023-02-15T13:02:23;99694.42;;;12.15;34.32
65013;BME280;51715;39.432;-77.518;2023-02-15T13:04:53;99701.23;;;11.82;34.55
65013;BME280;51715;39.432;-77.518;2023-02-15T13:07:21;99695.87;;;11.86;35.19
65013;BME280;51715;39.432;-77.518;2023-02-15T13:09:51;99699.34;;;11.45;35.48
65013;BME280;51715;39.432;-77.518;2023-02-15T13:12:23;99697.18;;;12.00;34.28
65013;BME280;51715;39.432;-77.518;2023-02-15T13:14:55;99694.13;;;12.52;33.59